Time;durP1;ratioP1;P1;durP2;ratioP2;P2;SDS_P1;SDS_P2;PMS_P1;PMS_P2;Temp;Humidity;BMP_temperature;BMP_pressure;BME280_temperature;BME280_humidity;BME280_pressure;Samples;Min_cycle;Max_cycle;Signal;HPM_P1;HPM_P2
2022/08/22 00:02:22;;;;;;;;;;;;;;;17.61;100.00;-25562.69;5051815;28;19916;-77
2022/08/22 00:04:50;;;;;;;;;;;;;;;17.66;100.00;-25564.16;5051946;28;19917;-77
2022/08/22 00:07:16;;;;;;;;;;;;;;;17.72;100.00;-25566.03;5051810;28;19924;-76
2022/08/22 00:09:56;;;;;;;;;;;;;;;17.77;100.00;-25567.34;5053255;28;20007;-77
2022/08/22 00:12:40;;;;;;;;;;;;;;;17.80;100.00;-25568.19;5052104;28;19924;-78
2022/08/22 00:15:08;;;;;;;;;;;;;;;17.83;100.00;-25569.06;5052090;28;20352;-77
2022/08/22 00:17:40;;;;;;;;;;;;;;;17.82;100.00;-25568.78;5052138;28;19916;-77
2022/08/22 00:20:14;;;;;;;;;;;;;;;17.89;100.00;-25570.66;5052127;28;19916;-78
2022/08/22 00:22:46;;;;;;;;;;;;;;;17.88;100.00;-25570.38;5052106;28;20003;-78
2022/08/22 00:25:17;;;;;;;;;;;;;;;17.89;100.00;-25570.66;5051954;28;20000;-78
2022/08/22 00:27:47;;;;;;;;;;;;;;;17.83;100.00;-25569.06;5052352;28;19971;-78
2022/08/22 00:30:16;;;;;;;;;;;;;;;17.84;100.00;-25569.38;5051765;28;19947;-79
2022/08/22 00:32:53;;;;;;;;;;;;;;;17.86;100.00;-25569.94;5052134;28;19917;-78
2022/08/22 00:35:31;;;;;;;;;;;;;;;17.86;100.00;-25569.94;5053168;28;19959;-79
2022/08/22 00:37:56;;;;;;;;;;;;;;;17.88;100.00;-25570.53;5052512;28;19955;-77
2022/08/22 00:40:37;;;;;;;;;;;;;;;17.91;100.00;-25571.25;5052105;28;19917;-76
2022/08/22 00:43:36;;;;;;;;;;;;;;;17.92;100.00;-25571.69;5051507;28;19917;-77
2022/08/22 00:46:01;;;;;;;;;;;;;;;17.88;100.00;-25570.53;5052357;28;19921;-80
2022/08/22 00:48:33;;;;;;;;;;;;;;;17.85;100.00;-25569.66;5056609;28;19917;-80
2022/08/22 00:51:37;;;;;;;;;;;;;;;17.85;100.00;-25569.50;5055803;28;19913;-78
2022/08/22 00:54:21;;;;;;;;;;;;;;;17.72;100.00;-25566.03;5054576;28;20020;-77
2022/08/22 00:56:53;;;;;;;;;;;;;;;17.71;100.00;-25565.59;5054728;28;20464;-77
2022/08/22 00:59:28;;;;;;;;;;;;;;;17.68;100.00;-25564.72;5047797;28;19917;-79
2022/08/22 01:02:02;;;;;;;;;;;;;;;17.70;100.00;-25565.31;5055865;28;19917;-77
2022/08/22 01:04:49;;;;;;;;;;;;;;;17.72;100.00;-25566.03;5056127;28;19917;-79
2022/08/22 01:07:32;;;;;;;;;;;;;;;17.66;100.00;-25564.28;5055498;28;19921;-78
2022/08/22 01:10:15;;;;;;;;;;;;;;;17.68;100.00;-25564.88;5055231;28;19917;-77
2022/08/22 01:12:42;;;;;;;;;;;;;;;17.57;100.00;-25561.84;5055334;28;20277;-78
2022/08/22 01:15:12;;;;;;;;;;;;;;;17.53;100.00;-25560.53;5055539;28;19917;-77
2022/08/22 01:17:38;;;;;;;;;;;;;;;17.50;100.00;-25559.81;5055460;28;19917;-77
2022/08/22 01:20:15;;;;;;;;;;;;;;;17.48;100.00;-25559.22;5055984;28;20419;-78
2022/08/22 01:22:43;;;;;;;;;;;;;;;17.48;100.00;-25559.06;5055859;28;20377;-80
2022/08/22 01:25:27;;;;;;;;;;;;;;;17.52;100.00;-25560.22;5055201;28;19913;-78
2022/08/22 01:28:04;;;;;;;;;;;;;;;17.46;100.00;-25558.63;5055183;28;20377;-78
2022/08/22 01:30:32;;;;;;;;;;;;;;;17.51;100.00;-25560.09;5055289;28;20003;-78
2022/08/22 01:33:20;;;;;;;;;;;;;;;17.56;100.00;-25561.41;5055212;28;19969;-77
2022/08/22 01:35:45;;;;;;;;;;;;;;;17.60;100.00;-25562.56;5053876;28;19913;-77
2022/08/22 01:38:19;;;;;;;;;;;;;;;17.58;100.00;-25561.97;5054902;28;20004;-78
2022/08/22 01:41:03;;;;;;;;;;;;;;;17.59;100.00;-25562.25;5054756;28;19924;-77
2022/08/22 01:43:36;;;;;;;;;;;;;;;17.60;100.00;-25562.56;5055197;28;19917;-77
2022/08/22 01:46:15;;;;;;;;;;;;;;;17.59;100.00;-25562.41;5056115;28;19948;-76
2022/08/22 01:48:46;;;;;;;;;;;;;;;17.61;100.00;-25562.69;5054705;28;19916;-78
2022/08/22 01:51:18;;;;;;;;;;;;;;;17.62;100.00;-25563.00;5055067;28;19923;-78
2022/08/22 01:54:05;;;;;;;;;;;;;;;17.64;100.00;-25563.72;5054486;28;19960;-78
2022/08/22 01:56:34;;;;;;;;;;;;;;;17.56;100.00;-25561.53;5055548;28;19979;-77
2022/08/22 01:59:02;;;;;;;;;;;;;;;17.58;100.00;-25562.13;5053513;28;19923;-78
2022/08/22 02:01:46;;;;;;;;;;;;;;;17.61;100.00;-25562.69;5054543;28;20003;-77
2022/08/22 02:04:19;;;;;;;;;;;;;;;17.52;100.00;-25560.22;5054574;28;19971;-76
2022/08/22 02:06:51;;;;;;;;;;;;;;;17.54;100.00;-25560.81;5055205;28;19917;-81
2022/08/22 02:09:22;;;;;;;;;;;;;;;17.54;100.00;-25560.97;5055083;28;20317;-78
2022/08/22 02:11:56;;;;;;;;;;;;;;;17.50;100.00;-25559.81;5054659;28;19962;-78
2022/08/22 02:14:31;;;;;;;;;;;;;;;17.52;100.00;-25560.22;5052719;28;19952;-78
2022/08/22 02:17:16;;;;;;;;;;;;;;;17.47;100.00;-25558.94;5053729;28;19928;-78
2022/08/22 02:20:13;;;;;;;;;;;;;;;17.54;100.00;-25560.81;5053852;28;19916;-77
2022/08/22 02:22:52;;;;;;;;;;;;;;;17.53;100.00;-25560.53;5053669;28;19916;-78
2022/08/22 02:25:22;;;;;;;;;;;;;;;17.47;100.00;-25558.78;5053860;28;19952;-77
2022/08/22 02:27:56;;;;;;;;;;;;;;;17.44;100.00;-25557.91;5053950;28;19923;-77
2022/08/22 02:30:49;;;;;;;;;;;;;;;17.39;100.00;-25556.75;5054830;28;19920;-77
2022/08/22 02:33:24;;;;;;;;;;;;;;;17.38;100.00;-25556.47;5053280;28;20470;-80
2022/08/22 02:35:55;;;;;;;;;;;;;;;17.37;100.00;-25556.03;5051970;28;20391;-80
2022/08/22 02:38:26;;;;;;;;;;;;;;;17.38;100.00;-25556.31;5053892;28;20381;-79
2022/08/22 02:41:10;;;;;;;;;;;;;;;17.36;100.00;-25555.75;5054301;28;20274;-78
2022/08/22 02:43:50;;;;;;;;;;;;;;;17.39;100.00;-25556.75;5054237;28;19923;-78
2022/08/22 02:46:27;;;;;;;;;;;;;;;17.44;100.00;-25557.91;5053381;28;19917;-77
2022/08/22 02:49:10;;;;;;;;;;;;;;;17.43;100.00;-25557.63;5054004;28;19921;-78
2022/08/22 02:51:44;;;;;;;;;;;;;;;17.48;100.00;-25559.06;5053483;28;19959;-79
2022/08/22 02:54:27;;;;;;;;;;;;;;;17.44;100.00;-25558.06;5053536;28;19916;-77
2022/08/22 02:56:52;;;;;;;;;;;;;;;17.48;100.00;-25559.06;5053702;28;19917;-78
2022/08/22 02:59:20;;;;;;;;;;;;;;;17.44;100.00;-25558.06;5054356;28;19917;-78
2022/08/22 03:01:47;;;;;;;;;;;;;;;17.45;100.00;-25558.34;5054196;28;19924;-80
2022/08/22 03:04:22;;;;;;;;;;;;;;;17.49;100.00;-25559.38;5070386;28;20004;-78
2022/08/22 03:06:57;;;;;;;;;;;;;;;17.46;100.00;-25558.63;5052926;28;19925;-79
2022/08/22 03:09:35;;;;;;;;;;;;;;;17.48;100.00;-25559.22;5052272;28;19917;-77
2022/08/22 03:12:11;;;;;;;;;;;;;;;17.50;100.00;-25559.66;5048272;28;20015;-78
2022/08/22 03:14:57;;;;;;;;;;;;;;;17.43;100.00;-25557.78;5054506;28;19925;-79
2022/08/22 03:17:25;;;;;;;;;;;;;;;17.45;100.00;-25558.34;5053155;28;19924;-80
2022/08/22 03:20:03;;;;;;;;;;;;;;;17.43;100.00;-25557.78;5053575;28;20276;-79
2022/08/22 03:22:36;;;;;;;;;;;;;;;17.43;100.00;-25557.78;5054269;28;20023;-78
2022/08/22 03:25:07;;;;;;;;;;;;;;;17.37;100.00;-25556.03;5053292;28;19996;-80
2022/08/22 03:27:38;;;;;;;;;;;;;;;17.33;100.00;-25554.88;5053230;28;19932;-78
2022/08/22 03:30:21;;;;;;;;;;;;;;;17.27;100.00;-25553.28;5053473;28;20429;-80
2022/08/22 03:32:53;;;;;;;;;;;;;;;17.22;100.00;-25551.97;5053340;28;19946;-78
2022/08/22 03:35:25;;;;;;;;;;;;;;;17.17;100.00;-25550.53;5053464;28;20594;-79
2022/08/22 03:37:54;;;;;;;;;;;;;;;17.12;100.00;-25548.94;5054190;28;19924;-78
2022/08/22 03:40:19;;;;;;;;;;;;;;;17.03;100.00;-25546.47;5052808;28;20058;-78
2022/08/22 03:42:48;;;;;;;;;;;;;;;16.93;100.00;-25543.56;5053152;28;19970;-81
2022/08/22 03:45:19;;;;;;;;;;;;;;;16.91;100.00;-25542.97;5052988;28;19920;-80
2022/08/22 03:48:04;;;;;;;;;;;;;;;16.84;100.00;-25541.09;5054138;28;20380;-79
2022/08/22 03:50:54;;;;;;;;;;;;;;;16.82;100.00;-25540.66;5052720;28;20385;-80
2022/08/22 03:53:34;;;;;;;;;;;;;;;16.81;100.00;-25540.38;5053014;28;19917;-80
2022/08/22 03:56:18;;;;;;;;;;;;;;;16.80;100.00;-25539.94;5052493;28;19939;-78
2022/08/22 03:58:52;;;;;;;;;;;;;;;16.80;100.00;-25539.94;5052815;28;19917;-80
2022/08/22 04:01:56;;;;;;;;;;;;;;;16.79;100.00;-25539.78;5052735;28;19921;-79
2022/08/22 04:04:32;;;;;;;;;;;;;;;16.79;100.00;-25539.78;5051755;28;19917;-79
2022/08/22 04:07:03;;;;;;;;;;;;;;;16.79;100.00;-25539.78;5031998;28;19962;-80
2022/08/22 04:09:29;;;;;;;;;;;;;;;16.79;100.00;-25539.78;5053252;28;19939;-80
2022/08/22 04:11:54;;;;;;;;;;;;;;;16.77;100.00;-25539.22;5052738;28;19921;-80
2022/08/22 04:14:29;;;;;;;;;;;;;;;16.77;100.00;-25539.22;5053388;28;19923;-80
2022/08/22 04:16:55;;;;;;;;;;;;;;;16.78;100.00;-25539.34;5052929;28;20557;-79
2022/08/22 04:19:26;;;;;;;;;;;;;;;16.75;100.00;-25538.47;5052812;28;19917;-78
2022/08/22 04:21:52;;;;;;;;;;;;;;;16.74;100.00;-25538.19;5052844;28;20373;-79
2022/08/22 04:24:33;;;;;;;;;;;;;;;16.71;100.00;-25537.31;5053092;28;19916;-80
2022/08/22 04:26:58;;;;;;;;;;;;;;;16.68;100.00;-25536.59;5052357;28;19993;-78
2022/08/22 04:29:23;;;;;;;;;;;;;;;16.67;100.00;-25536.31;5056597;28;20384;-80
2022/08/22 04:31:59;;;;;;;;;;;;;;;16.68;100.00;-25536.75;5060214;28;20144;-79
2022/08/22 04:34:33;;;;;;;;;;;;;;;16.74;100.00;-25538.34;5055267;28;20030;-79
2022/08/22 04:37:02;;;;;;;;;;;;;;;16.73;100.00;-25538.03;5057276;28;19916;-78
2022/08/22 04:39:36;;;;;;;;;;;;;;;16.73;100.00;-25538.03;5052282;28;19924;-79
2022/08/22 04:42:07;;;;;;;;;;;;;;;16.74;100.00;-25538.34;5055692;28;19916;-77
2022/08/22 04:44:32;;;;;;;;;;;;;;;16.75;100.00;-25538.63;5059683;28;19917;-78
2022/08/22 04:47:07;;;;;;;;;;;;;;;16.73;100.00;-25537.91;5061636;28;20338;-82
2022/08/22 04:49:50;;;;;;;;;;;;;;;16.71;100.00;-25537.31;5052206;28;20340;-81
2022/08/22 04:52:35;;;;;;;;;;;;;;;16.65;100.00;-25535.72;5051709;28;20276;-82
2022/08/22 04:55:17;;;;;;;;;;;;;;;16.65;100.00;-25535.72;5051935;28;19917;-81
2022/08/22 04:57:54;;;;;;;;;;;;;;;16.63;100.00;-25535.16;5051560;28;19959;-79
2022/08/22 05:00:22;;;;;;;;;;;;;;;16.65;100.00;-25535.72;5051802;28;19921;-80
2022/08/22 05:03:00;;;;;;;;;;;;;;;16.66;100.00;-25536.00;5052200;28;19917;-81
2022/08/22 05:05:34;;;;;;;;;;;;;;;16.68;100.00;-25536.75;5051404;28;20023;-79
2022/08/22 05:08:01;;;;;;;;;;;;;;;16.73;100.00;-25538.03;5051144;28;19939;-78
2022/08/22 05:10:31;;;;;;;;;;;;;;;16.69;100.00;-25536.88;5051682;28;19921;-78
2022/08/22 05:13:01;;;;;;;;;;;;;;;16.66;100.00;-25536.16;5050958;28;19920;-81
2022/08/22 05:15:32;;;;;;;;;;;;;;;16.68;100.00;-25536.75;5052539;28;19924;-79
2022/08/22 05:18:01;;;;;;;;;;;;;;;16.64;100.00;-25535.44;5052702;28;20000;-78
2022/08/22 05:20:27;;;;;;;;;;;;;;;16.61;100.00;-25534.72;5051502;28;19921;-80
2022/08/22 05:23:00;;;;;;;;;;;;;;;16.63;100.00;-25535.16;5052481;28;19968;-81
2022/08/22 05:25:31;;;;;;;;;;;;;;;16.67;100.00;-25536.31;5052885;28;19925;-81
2022/08/22 05:28:10;;;;;;;;;;;;;;;16.73;100.00;-25538.03;5046148;28;20403;-78
2022/08/22 05:30:36;;;;;;;;;;;;;;;16.78;100.00;-25539.50;5049328;28;19928;-79
2022/08/22 05:33:18;;;;;;;;;;;;;;;16.72;100.00;-25537.59;5051154;28;20276;-77
2022/08/22 05:35:52;;;;;;;;;;;;;;;16.67;100.00;-25536.31;5055017;28;19919;-79
2022/08/22 05:38:22;;;;;;;;;;;;;;;16.65;100.00;-25535.72;5054712;28;19917;-78
2022/08/22 05:40:53;;;;;;;;;;;;;;;16.63;100.00;-25535.28;5054622;28;19970;-79
2022/08/22 05:43:23;;;;;;;;;;;;;;;16.74;100.00;-25538.19;5053896;28;19917;-78
2022/08/22 05:45:48;;;;;;;;;;;;;;;16.82;100.00;-25540.50;5054914;28;19917;-78
2022/08/22 05:48:19;;;;;;;;;;;;;;;16.92;100.00;-25543.41;5054114;28;20363;-79
2022/08/22 05:50:52;;;;;;;;;;;;;;;17.02;100.00;-25546.19;5054022;28;19917;-77
2022/08/22 05:53:29;;;;;;;;;;;;;;;17.18;100.00;-25550.81;5055408;28;19963;-78
2022/08/22 05:56:10;;;;;;;;;;;;;;;17.34;100.00;-25555.31;5055113;28;19924;-79
2022/08/22 05:58:42;;;;;;;;;;;;;;;17.44;100.00;-25557.91;5054089;28;19924;-78
2022/08/22 06:01:10;;;;;;;;;;;;;;;17.68;100.00;-25564.72;5053537;28;19921;-77
2022/08/22 06:03:40;;;;;;;;;;;;;;;17.75;100.00;-25566.91;5054084;28;19940;-78
2022/08/22 06:06:10;;;;;;;;;;;;;;;17.44;100.00;-25558.06;5054094;28;20015;-81
2022/08/22 06:08:40;;;;;;;;;;;;;;;17.65;100.00;-25563.84;5053192;28;19920;-79
2022/08/22 06:11:19;;;;;;;;;;;;;;;17.77;100.00;-25567.34;5049374;28;19966;-82
2022/08/22 06:14:02;;;;;;;;;;;;;;;18.39;100.00;-25584.72;5054048;28;20022;-80
2022/08/22 06:16:39;;;;;;;;;;;;;;;18.25;100.00;-25580.81;5055314;28;19970;-82
2022/08/22 06:19:05;;;;;;;;;;;;;;;18.21;100.00;-25579.78;5055688;28;19917;-79
2022/08/22 06:21:32;;;;;;;;;;;;;;;18.15;100.00;-25578.06;5058081;28;19971;-80
2022/08/22 06:24:00;;;;;;;;;;;;;;;18.36;100.00;-25583.97;5054858;28;19925;-82
2022/08/22 06:26:29;;;;;;;;;;;;;;;18.56;100.00;-25589.63;5055437;28;19917;-78
2022/08/22 06:28:57;;;;;;;;;;;;;;;18.51;100.00;-25588.19;5037009;28;19928;-79
2022/08/22 06:31:27;;;;;;;;;;;;;;;18.58;100.00;-25590.06;5054334;28;20494;-80
2022/08/22 06:33:58;;;;;;;;;;;;;;;18.87;100.00;-25598.31;5054646;28;19916;-78
2022/08/22 06:36:30;;;;;;;;;;;;;;;18.91;100.00;-25266.69;5052532;28;19969;-80
2022/08/22 06:38:57;;;;;;;;;;;;;;;18.82;100.00;-23279.72;5053297;28;19987;-78
2022/08/22 06:41:25;;;;;;;;;;;;;;;18.98;100.00;-22621.72;5054659;28;20023;-81
2022/08/22 06:43:54;;;;;;;;;;;;;;;19.48;100.00;-21639.56;5053294;28;19916;-78
2022/08/22 06:46:22;;;;;;;;;;;;;;;20.02;100.00;-16009.88;5053331;28;19913;-82
2022/08/22 06:48:48;;;;;;;;;;;;;;;20.22;100.00;-10028.19;5052952;28;20399;-75
2022/08/22 06:51:15;;;;;;;;;;;;;;;20.52;100.00;-3365.88;5053876;28;19936;-82
2022/08/22 06:53:48;;;;;;;;;;;;;;;20.23;100.00;2636.38;5053893;28;20310;-79
2022/08/22 06:56:23;;;;;;;;;;;;;;;19.61;100.00;1959.19;5054018;28;20428;-78
2022/08/22 06:58:51;;;;;;;;;;;;;;;19.81;100.00;-4036.91;5053328;28;19920;-82
2022/08/22 07:01:20;;;;;;;;;;;;;;;19.91;100.00;-4702.41;5053753;28;20169;-80
2022/08/22 07:03:50;;;;;;;;;;;;;;;20.21;100.00;-6699.50;5053942;28;20288;-81
2022/08/22 07:06:17;;;;;;;;;;;;;;;20.80;100.00;-694.13;5053643;28;19974;-81
2022/08/22 07:08:43;;;;;;;;;;;;;;;20.67;100.00;5651.19;5053746;28;19924;-80
2022/08/22 07:11:26;;;;;;;;;;;;;;;21.14;100.00;12358.16;5053670;28;19917;-82
2022/08/22 07:13:58;;;;;;;;;;;;;;;22.22;100.00;25507.38;5054061;28;20015;-81
2022/08/22 07:16:27;;;;;;;;;;;;;;;22.39;100.00;51886.41;5054515;28;19916;-80
2022/08/22 07:18:53;;;;;;;;;;;;;;;22.58;100.00;91802.97;5052539;28;20296;-77
2022/08/22 07:21:27;;;;;;;;;;;;;;;22.56;100.00;148391.81;5051042;28;20358;-77
2022/08/22 07:23:53;;;;;;;;;;;;;;;22.34;100.00;148335.34;5051534;28;20058;-78
2022/08/22 07:26:27;;;;;;;;;;;;;;;22.31;100.00;148327.66;5051245;28;19971;-76
2022/08/22 07:28:58;;;;;;;;;;;;;;;22.45;100.00;148362.28;5051279;28;19923;-75
2022/08/22 07:31:39;;;;;;;;;;;;;;;22.81;100.00;148453.41;5051613;28;19965;-74
2022/08/22 07:34:24;;;;;;;;;;;;;;;23.66;100.00;148666.53;5051064;28;20004;-74
2022/08/22 07:36:55;;;;;;;;;;;;;;;23.45;100.00;148613.88;5052055;28;19948;-76
2022/08/22 07:39:21;;;;;;;;;;;;;;;23.40;100.00;148601.06;5051264;28;20300;-75
2022/08/22 07:42:01;;;;;;;;;;;;;;;23.86;100.00;148714.06;5050718;28;19928;-74
2022/08/22 07:44:34;;;;;;;;;;;;;;;24.42;100.00;148854.06;5051777;28;20573;-75
2022/08/22 07:47:03;;;;;;;;;;;;;;;23.47;100.00;148619.00;5050198;28;19932;-76
2022/08/22 07:49:37;;;;;;;;;;;;;;;22.91;100.00;148479.06;5050839;28;20401;-75
2022/08/22 07:52:06;;;;;;;;;;;;;;;22.89;100.00;148473.94;5049737;28;20407;-76
2022/08/22 07:54:51;;;;;;;;;;;;;;;23.60;100.00;148649.81;5052175;28;19924;-79
2022/08/22 07:57:20;;;;;;;;;;;;;;;23.55;100.00;148636.97;5050587;28;19920;-75
2022/08/22 07:59:47;;;;;;;;;;;;;;;23.57;100.00;148643.41;5052066;28;19917;-78
2022/08/22 08:02:14;;;;;;;;;;;;;;;23.74;100.00;148685.78;5051655;28;19923;-80
2022/08/22 08:04:40;;;;;;;;;;;;;;;23.67;100.00;148669.06;5051652;28;19917;-76
2022/08/22 08:07:07;;;;;;;;;;;;;;;24.51;100.00;148877.19;5050606;28;19924;-74
2022/08/22 08:09:36;;;;;;;;;;;;;;;24.14;100.00;148785.97;5050833;28;19927;-80
2022/08/22 08:12:03;;;;;;;;;;;;;;;24.85;100.00;148963.31;5052613;28;20381;-78
2022/08/22 08:14:29;;;;;;;;;;;;;;;24.84;100.00;148960.72;5053126;28;19924;-79
2022/08/22 08:17:06;;;;;;;;;;;;;;;25.30;100.00;149073.88;5051521;28;20015;-75
2022/08/22 08:19:37;;;;;;;;;;;;;;;25.23;100.00;149058.41;5045369;28;20353;-75
2022/08/22 08:22:04;;;;;;;;;;;;;;;25.65;100.00;149162.53;5051035;28;19979;-81
2022/08/22 08:24:47;;;;;;;;;;;;;;;25.82;100.00;149203.69;5052151;28;19916;-80
2022/08/22 08:30:01;;;;;;;;;;;;;;;25.20;100.00;149049.38;5051947;28;19928;-81
2022/08/22 08:32:30;;;;;;;;;;;;;;;26.42;100.00;149354.22;5049583;28;20333;-75
2022/08/22 08:34:56;;;;;;;;;;;;;;;26.43;100.00;149358.06;5050655;28;19924;-79
2022/08/22 08:37:33;;;;;;;;;;;;;;;26.21;100.00;149301.47;5050847;28;19917;-74
2022/08/22 08:40:00;;;;;;;;;;;;;;;26.19;100.00;149296.34;5051620;28;19917;-76
2022/08/22 08:45:41;;;;;;;;;;;;;;;26.62;100.00;149405.66;5053766;28;20348;-79
2022/08/22 08:48:25;;;;;;;;;;;;;;;27.06;100.00;149515.03;5049757;28;20029;-81
2022/08/22 08:51:02;;;;;;;;;;;;;;;26.43;100.00;149358.06;5050069;28;19916;-76
2022/08/22 08:53:43;;;;;;;;;;;;;;;25.63;100.00;149158.69;5050550;28;19917;-76
2022/08/22 08:56:08;;;;;;;;;;;;;;;26.04;100.00;149260.34;5051556;28;19917;-76
2022/08/22 08:58:39;;;;;;;;;;;;;;;26.07;100.00;149268.06;5050976;28;19924;-79
2022/08/22 09:01:25;;;;;;;;;;;;;;;26.60;100.00;149399.19;5050709;28;19916;-81
2022/08/22 09:04:05;;;;;;;;;;;;;;;27.08;100.00;149520.22;5051406;28;19917;-77
2022/08/22 09:06:36;;;;;;;;;;;;;;;26.59;100.00;149396.66;5051367;28;19924;-74
2022/08/22 09:09:16;;;;;;;;;;;;;;;26.99;100.00;149497.06;5053821;28;20105;-76
2022/08/22 09:11:49;;;;;;;;;;;;;;;26.94;100.00;149484.16;5055471;28;20016;-81
2022/08/22 09:14:28;;;;;;;;;;;;;;;25.90;100.00;149224.25;5054201;28;20416;-77
2022/08/22 09:17:03;;;;;;;;;;;;;;;25.48;100.00;149118.84;5054296;28;19924;-76
2022/08/22 09:19:28;;;;;;;;;;;;;;;25.59;100.00;149148.44;5053388;28;19921;-78
2022/08/22 09:22:18;;;;;;;;;;;;;;;25.59;100.00;149147.13;5053355;28;19979;-76
2022/08/22 09:24:47;;;;;;;;;;;;;;;25.26;100.00;149064.81;5054378;28;19967;-77
2022/08/22 09:27:17;;;;;;;;;;;;;;;24.94;100.00;148983.84;5054140;28;19986;-79
2022/08/22 09:29:47;;;;;;;;;;;;;;;24.93;100.00;148982.56;5053527;28;20365;-78
2022/08/22 09:32:16;;;;;;;;;;;;;;;24.92;100.00;148980.00;5053604;28;20165;-78
2022/08/22 09:34:57;;;;;;;;;;;;;;;24.81;100.00;148951.72;5061326;28;19917;-76
2022/08/22 09:38:00;;;;;;;;;;;;;;;24.69;100.00;148922.22;5062388;28;20242;-79
2022/08/22 09:40:39;;;;;;;;;;;;;;;24.46;100.00;148864.34;5062168;28;19956;-80
2022/08/22 09:43:17;;;;;;;;;;;;;;;24.29;100.00;148821.97;5042142;28;19917;-78
2022/08/22 09:45:48;;;;;;;;;;;;;;;24.59;100.00;148896.50;5059035;28;19923;-82
2022/08/22 09:48:25;;;;;;;;;;;;;;;24.91;100.00;148977.44;5062489;28;20228;-79
2022/08/22 09:50:58;;;;;;;;;;;;;;;24.63;100.00;148908.06;5064952;28;19913;-79
2022/08/22 09:53:23;;;;;;;;;;;;;;;24.79;100.00;148946.59;5059426;28;19924;-79
2022/08/22 09:56:02;;;;;;;;;;;;;;;24.81;100.00;148951.72;5055157;28;19913;-76
2022/08/22 09:58:31;;;;;;;;;;;;;;;24.72;100.00;148929.91;5053594;28;20061;-80
2022/08/22 10:00:58;;;;;;;;;;;;;;;24.93;100.00;148982.56;5054307;28;19917;-81
2022/08/22 10:03:50;;;;;;;;;;;;;;;24.71;100.00;148927.34;5053572;28;19951;-76
2022/08/22 10:06:22;;;;;;;;;;;;;;;24.31;100.00;148828.34;5053371;28;20338;-77
2022/08/22 10:09:02;;;;;;;;;;;;;;;24.63;100.00;148906.78;5053112;28;20387;-74
2022/08/22 10:11:34;;;;;;;;;;;;;;;24.73;100.00;148933.78;5052808;28;20455;-77
2022/08/22 10:14:03;;;;;;;;;;;;;;;24.48;100.00;148869.47;5053983;28;19912;-81
2022/08/22 10:16:52;;;;;;;;;;;;;;;24.80;100.00;148950.47;5053442;28;20277;-77
2022/08/22 10:19:40;;;;;;;;;;;;;;;25.14;100.00;149035.28;5051543;28;19917;-76
2022/08/22 10:22:24;;;;;;;;;;;;;;;25.63;100.00;149157.41;5052912;28;19917;-78
2022/08/22 10:25:08;;;;;;;;;;;;;;;25.76;100.00;149189.53;5053635;28;19950;-77
2022/08/22 10:27:53;;;;;;;;;;;;;;;25.42;100.00;149106.00;5053782;28;19917;-76
2022/08/22 10:30:37;;;;;;;;;;;;;;;24.94;100.00;148985.16;5053054;28;19921;-76
2022/08/22 10:33:24;;;;;;;;;;;;;;;25.45;100.00;149112.44;5052469;28;19917;-77
2022/08/22 10:35:49;;;;;;;;;;;;;;;25.57;100.00;149141.97;5052749;28;19952;-76
2022/08/22 10:38:23;;;;;;;;;;;;;;;25.17;100.00;149043.00;5053127;28;20010;-77
2022/08/22 10:41:08;;;;;;;;;;;;;;;25.57;100.00;149141.97;5052662;28;19923;-77
2022/08/22 10:43:43;;;;;;;;;;;;;;;25.53;100.00;149131.72;5052142;28;20319;-79
2022/08/22 10:46:12;;;;;;;;;;;;;;;25.72;100.00;149180.56;5052303;28;19917;-77
2022/08/22 10:48:47;;;;;;;;;;;;;;;25.61;100.00;149152.28;5052866;28;19917;-75
2022/08/22 10:51:31;;;;;;;;;;;;;;;25.82;100.00;149204.97;5052450;28;20602;-77
2022/08/22 10:54:07;;;;;;;;;;;;;;;25.85;100.00;149212.69;5052527;28;20253;-78
2022/08/22 10:56:33;;;;;;;;;;;;;;;25.06;100.00;149016.00;5051960;28;19924;-78
2022/08/22 10:58:59;;;;;;;;;;;;;;;24.94;100.00;148985.16;5051930;28;19917;-75
2022/08/22 11:01:28;;;;;;;;;;;;;;;25.24;100.00;149059.69;5051606;28;19917;-76
2022/08/22 11:04:16;;;;;;;;;;;;;;;25.24;100.00;149060.94;5051539;28;19917;-76
2022/08/22 11:06:55;;;;;;;;;;;;;;;24.90;100.00;148974.84;5050821;28;19931;-75
2022/08/22 11:09:29;;;;;;;;;;;;;;;24.95;100.00;148987.69;5052072;28;19917;-78
2022/08/22 11:11:59;;;;;;;;;;;;;;;25.22;100.00;149054.56;5051348;28;20014;-75
2022/08/22 11:14:31;;;;;;;;;;;;;;;24.95;100.00;148987.69;5051821;28;20385;-77
2022/08/22 11:17:02;;;;;;;;;;;;;;;25.05;100.00;149013.41;5052298;28;20015;-76
2022/08/22 11:19:30;;;;;;;;;;;;;;;24.64;100.00;148909.34;5052078;28;19939;-75
2022/08/22 11:22:25;;;;;;;;;;;;;;;24.79;100.00;148946.59;5051564;28;19964;-77
2022/08/22 11:24:50;;;;;;;;;;;;;;;25.08;100.00;149019.84;5050780;28;20060;-77
2022/08/22 11:27:15;;;;;;;;;;;;;;;25.25;100.00;149063.53;5052096;28;19917;-76
2022/08/22 11:29:54;;;;;;;;;;;;;;;25.22;100.00;149055.81;5051580;28;19920;-80
2022/08/22 11:32:39;;;;;;;;;;;;;;;25.31;100.00;149077.75;5052594;28;19917;-76
2022/08/22 11:35:07;;;;;;;;;;;;;;;25.23;100.00;149057.09;5051468;28;19916;-78
2022/08/22 11:37:32;;;;;;;;;;;;;;;24.60;100.00;148899.09;5052391;28;20274;-80
2022/08/22 11:40:15;;;;;;;;;;;;;;;24.66;100.00;148915.78;5052290;28;19916;-76
2022/08/22 11:43:00;;;;;;;;;;;;;;;24.68;100.00;148920.91;5052734;28;19924;-78
2022/08/22 11:45:30;;;;;;;;;;;;;;;24.90;100.00;148976.13;5053007;28;19928;-77
2022/08/22 11:48:14;;;;;;;;;;;;;;;25.02;100.00;149004.44;5052685;28;19952;-76
2022/08/22 11:50:43;;;;;;;;;;;;;;;25.07;100.00;149018.53;5051979;28;19916;-77
2022/08/22 11:53:27;;;;;;;;;;;;;;;25.48;100.00;149120.16;5051750;28;19917;-77
2022/08/22 11:56:09;;;;;;;;;;;;;;;25.11;100.00;149026.25;5053085;28;19917;-82
2022/08/22 11:58:43;;;;;;;;;;;;;;;25.13;100.00;149031.41;5053133;28;20377;-81
2022/08/22 12:01:41;;;;;;;;;;;;;;;24.85;100.00;148962.03;5051441;28;19979;-77
2022/08/22 12:04:14;;;;;;;;;;;;;;;25.26;100.00;149064.81;5049981;28;19916;-81
2022/08/22 12:06:40;;;;;;;;;;;;;;;25.39;100.00;149098.28;5051407;28;19916;-82
2022/08/22 12:09:16;;;;;;;;;;;;;;;25.30;100.00;149075.16;5053174;28;19921;-78
2022/08/22 12:11:59;;;;;;;;;;;;;;;25.42;100.00;149106.00;5052275;28;19916;-79
2022/08/22 12:14:35;;;;;;;;;;;;;;;25.71;100.00;149176.69;5051986;28;20320;-78
2022/08/22 12:17:05;;;;;;;;;;;;;;;26.01;100.00;149251.31;5050814;28;19963;-82
2022/08/22 12:19:44;;;;;;;;;;;;;;;26.14;100.00;149284.75;5051828;28;19970;-80
2022/08/22 12:22:13;;;;;;;;;;;;;;;25.91;100.00;149226.84;5051387;28;19917;-80
2022/08/22 12:24:46;;;;;;;;;;;;;;;25.30;100.00;149075.16;5051590;28;19956;-79
2022/08/22 12:27:30;;;;;;;;;;;;;;;25.18;100.00;149044.25;5051830;28;19927;-80
2022/08/22 12:29:58;;;;;;;;;;;;;;;25.32;100.00;149079.00;5052616;28;20015;-81
2022/08/22 12:32:32;;;;;;;;;;;;;;;25.71;100.00;149177.97;5051103;28;19923;-79
2022/08/22 12:35:09;;;;;;;;;;;;;;;25.79;100.00;149198.56;5050143;28;19924;-78
2022/08/22 12:37:42;;;;;;;;;;;;;;;25.56;100.00;149140.72;5051606;28;19939;-77
2022/08/22 12:40:17;;;;;;;;;;;;;;;25.59;100.00;149148.44;5050415;28;20437;-77
2022/08/22 12:43:02;;;;;;;;;;;;;;;26.05;100.00;149262.88;5050231;28;19970;-77
2022/08/22 12:45:41;;;;;;;;;;;;;;;25.58;100.00;149144.56;5045789;28;19928;-78
2022/08/22 12:48:06;;;;;;;;;;;;;;;25.77;100.00;149193.41;5050481;28;19917;-77
2022/08/22 12:50:50;;;;;;;;;;;;;;;26.03;100.00;149256.47;5050498;28;20369;-76
2022/08/22 12:53:21;;;;;;;;;;;;;;;26.09;100.00;149273.19;5049950;28;20373;-75
2022/08/22 12:56:25;;;;;;;;;;;;;;;26.12;100.00;149279.63;5050690;28;19920;-77
2022/08/22 12:59:09;;;;;;;;;;;;;;;25.43;100.00;149108.59;5049542;28;19924;-77
2022/08/22 13:01:36;;;;;;;;;;;;;;;25.68;100.00;149168.97;5049889;28;20064;-77
2022/08/22 13:04:04;;;;;;;;;;;;;;;25.46;100.00;149115.00;5041230;28;19917;-79
2022/08/22 13:06:36;;;;;;;;;;;;;;;25.67;100.00;149167.72;5050097;28;19916;-78
2022/08/22 13:09:22;;;;;;;;;;;;;;;25.51;100.00;149126.56;5051196;28;20381;-75
2022/08/22 13:11:50;;;;;;;;;;;;;;;25.71;100.00;149177.97;5049802;28;19921;-78